createdAt,value
2022-08-17T00:02:26.341Z,5.03
2022-08-17T00:04:54.968Z,4.40
2022-08-17T00:07:21.849Z,4.97
2022-08-17T00:09:48.683Z,4.32
2022-08-17T00:12:43.071Z,4.15
2022-08-17T00:15:04.439Z,6.75
2022-08-17T00:17:31.257Z,7.28
2022-08-17T00:19:58.132Z,21.30
2022-08-17T00:22:34.993Z,11.57
2022-08-17T00:25:07.539Z,7.88
2022-08-17T00:27:35.332Z,6.15
2022-08-17T00:30:02.515Z,5.63
2022-08-17T00:33:15.195Z,5.25
2022-08-17T00:35:19.382Z,4.72
2022-08-17T00:37:46.281Z,7.00
2022-08-17T00:40:15.111Z,5.85
2022-08-17T00:42:43.762Z,3.95
2022-08-17T00:45:13.982Z,4.22
2022-08-17T00:47:41.738Z,5.50
2022-08-17T00:50:11.502Z,4.13
2022-08-17T00:52:47.410Z,3.75
2022-08-17T00:55:14.642Z,4.07
2022-08-17T00:57:46.391Z,5.95
2022-08-17T01:00:21.379Z,14.18
2022-08-17T01:02:48.938Z,9.77
2022-08-17T01:05:19.393Z,7.88
2022-08-17T01:07:50.770Z,4.55
2022-08-17T01:10:57.430Z,3.05
2022-08-17T01:13:14.879Z,3.33
2022-08-17T01:15:51.336Z,3.20
2022-08-17T01:18:18.292Z,5.78
2022-08-17T01:20:50.033Z,4.32
2022-08-17T01:23:21.021Z,3.00
2022-08-17T01:25:57.174Z,3.53
2022-08-17T01:28:52.468Z,4.38
2022-08-17T01:31:14.143Z,3.95
2022-08-17T01:33:40.963Z,3.90
2022-08-17T01:36:08.765Z,4.30
2022-08-17T01:38:37.061Z,3.35
2022-08-17T01:41:11.161Z,3.65
2022-08-17T01:43:45.281Z,3.65
2022-08-17T01:46:16.857Z,4.07
2022-08-17T01:48:47.294Z,3.83
2022-08-17T01:51:15.579Z,4.05
2022-08-17T01:53:47.484Z,3.53
2022-08-17T01:56:20.061Z,3.78
2022-08-17T01:58:47.003Z,3.72
2022-08-17T02:01:19.397Z,4.80
2022-08-17T02:03:53.133Z,3.28
2022-08-17T02:06:28.251Z,3.22
2022-08-17T02:09:02.824Z,3.50
2022-08-17T02:11:37.684Z,3.83
2022-08-17T02:14:08.230Z,3.92
2022-08-17T02:16:38.317Z,3.92
2022-08-17T02:19:12.536Z,4.28
2022-08-17T02:21:42.544Z,5.28
2022-08-17T02:24:15.582Z,3.97
2022-08-17T02:26:42.485Z,3.97
2022-08-17T02:29:09.296Z,4.13
2022-08-17T02:31:36.099Z,3.60
2022-08-17T02:34:04.615Z,4.93
2022-08-17T02:36:34.355Z,4.55
2022-08-17T02:39:07.010Z,3.92
2022-08-17T02:41:34.251Z,3.95
2022-08-17T02:44:01.251Z,4.18
2022-08-17T02:46:28.375Z,3.88
2022-08-17T02:48:55.512Z,5.25
2022-08-17T02:51:22.367Z,3.80
2022-08-17T02:53:49.161Z,3.95
2022-08-17T02:56:16.098Z,5.40
2022-08-17T02:58:42.990Z,3.92
2022-08-17T03:01:10.792Z,3.70
2022-08-17T03:03:38.579Z,3.88
2022-08-17T03:06:07.729Z,5.03
2022-08-17T03:08:35.237Z,5.30
2022-08-17T03:11:02.047Z,3.97
2022-08-17T03:13:29.119Z,3.80
2022-08-17T03:15:56.155Z,4.20
2022-08-17T03:18:25.715Z,4.70
2022-08-17T03:20:58.826Z,7.82
2022-08-17T03:23:27.267Z,6.60
2022-08-17T03:25:54.781Z,4.60
2022-08-17T03:28:22.646Z,4.30
2022-08-17T03:30:51.247Z,4.32
2022-08-17T03:33:19.193Z,4.00
2022-08-17T03:35:46.516Z,3.90
2022-08-17T03:38:15.136Z,5.28
2022-08-17T03:40:58.517Z,5.80
2022-08-17T03:43:28.771Z,5.85
2022-08-17T03:46:27.752Z,4.47
2022-08-17T03:49:19.517Z,4.10
2022-08-17T03:52:04.902Z,4.93
2022-08-17T03:54:50.257Z,4.65
2022-08-17T03:57:17.159Z,4.82
2022-08-17T03:59:45.050Z,6.18
2022-08-17T04:02:18.950Z,4.55
2022-08-17T04:04:46.549Z,5.78
2022-08-17T04:07:13.378Z,6.88
2022-08-17T04:09:40.300Z,4.57
2022-08-17T04:12:07.226Z,4.60
2022-08-17T04:14:51.785Z,5.30
2022-08-17T04:17:25.307Z,4.25
2022-08-17T04:19:53.110Z,4.97
2022-08-17T04:22:31.377Z,5.80
2022-08-17T04:25:16.157Z,4.57
2022-08-17T04:27:43.159Z,6.35
2022-08-17T04:30:10.828Z,4.78
2022-08-17T04:33:07.322Z,5.03
2022-08-17T04:36:01.820Z,4.63
2022-08-17T04:38:35.445Z,4.68
2022-08-17T04:41:21.251Z,5.88
2022-08-17T04:43:49.558Z,4.20
2022-08-17T04:46:18.514Z,4.80
2022-08-17T04:48:47.958Z,6.80
2022-08-17T04:51:18.368Z,6.77
2022-08-17T04:53:51.062Z,5.97
2022-08-17T04:56:22.363Z,5.13
2022-08-17T04:58:50.859Z,4.65
2022-08-17T05:01:23.067Z,5.93
2022-08-17T05:03:56.245Z,5.40
2022-08-17T05:06:23.607Z,4.45
2022-08-17T05:08:50.793Z,5.43
2022-08-17T05:11:18.310Z,4.47
2022-08-17T05:13:45.217Z,9.15
2022-08-17T05:16:12.202Z,5.18
2022-08-17T05:18:39.152Z,5.32
2022-08-17T05:21:06.847Z,5.22
2022-08-17T05:23:41.671Z,5.22
2022-08-17T05:26:26.387Z,6.05
2022-08-17T05:28:57.162Z,5.90
2022-08-17T05:31:27.506Z,11.35
2022-08-17T05:33:54.326Z,8.48
2022-08-17T05:36:42.721Z,11.23
2022-08-17T05:39:08.495Z,11.07
2022-08-17T05:41:44.309Z,11.20
2022-08-17T05:44:11.199Z,8.43
2022-08-17T05:46:41.658Z,10.73
2022-08-17T05:49:09.620Z,9.35
2022-08-17T05:51:57.425Z,9.90
2022-08-17T05:54:27.406Z,9.05
2022-08-17T05:57:08.274Z,9.40
2022-08-17T05:59:39.414Z,7.25
2022-08-17T06:02:19.121Z,11.57
2022-08-17T06:05:44.380Z,7.03
2022-08-17T06:08:42.391Z,10.55
2022-08-17T06:11:27.328Z,8.07
2022-08-17T06:14:18.687Z,5.20
2022-08-17T06:16:51.336Z,9.10
2022-08-17T06:19:41.142Z,5.97
2022-08-17T06:22:11.755Z,6.47
2022-08-17T06:24:42.037Z,9.43
2022-08-17T06:27:41.092Z,8.68
2022-08-17T06:30:22.259Z,5.80
2022-08-17T06:32:51.475Z,6.15
2022-08-17T06:35:42.505Z,6.93
2022-08-17T06:38:36.974Z,5.97
2022-08-17T06:41:44.626Z,5.93
2022-08-17T06:44:43.169Z,10.90
2022-08-17T06:47:28.022Z,13.70
2022-08-17T06:50:20.385Z,5.78
2022-08-17T06:52:57.780Z,10.93
2022-08-17T06:56:06.059Z,9.77
2022-08-17T06:58:35.627Z,9.50
2022-08-17T07:01:18.074Z,7.10
2022-08-17T07:03:54.323Z,5.50
2022-08-17T07:06:32.730Z,11.77
2022-08-17T07:09:15.767Z,11.40
2022-08-17T07:11:53.852Z,6.93
2022-08-17T07:14:52.855Z,8.05
2022-08-17T07:17:21.952Z,8.95
2022-08-17T07:20:16.060Z,6.03
2022-08-17T07:22:50.494Z,6.00
2022-08-17T07:25:30.639Z,6.82
2022-08-17T07:28:06.853Z,7.15
2022-08-17T07:30:47.447Z,5.57
2022-08-17T07:33:20.316Z,5.03
2022-08-17T07:35:49.818Z,7.88
2022-08-17T07:38:26.995Z,4.50
2022-08-17T07:41:03.562Z,9.52
2022-08-17T07:43:31.167Z,8.00
2022-08-17T07:46:19.244Z,8.40
2022-08-17T07:48:50.879Z,6.88
2022-08-17T07:51:33.811Z,7.57
2022-08-17T07:54:23.956Z,7.75
2022-08-17T07:57:00.274Z,17.13
2022-08-17T07:59:33.785Z,5.35
2022-08-17T08:02:02.352Z,7.13
2022-08-17T08:04:59.884Z,8.18
2022-08-17T08:07:52.198Z,9.15
2022-08-17T08:10:31.068Z,6.28
2022-08-17T08:13:21.204Z,6.18
2022-08-17T08:15:54.191Z,5.32
2022-08-17T08:18:53.911Z,7.97
2022-08-17T08:21:33.786Z,8.32
2022-08-17T08:24:03.363Z,6.70
2022-08-17T08:26:30.246Z,5.22
2022-08-17T08:29:31.113Z,8.77
2022-08-17T08:32:36.810Z,5.82
2022-08-17T08:35:06.819Z,7.78
2022-08-17T08:38:01.872Z,8.15
2022-08-17T08:40:44.569Z,9.50
2022-08-17T08:43:22.646Z,6.03
2022-08-17T08:45:58.330Z,11.20
2022-08-17T08:48:52.890Z,10.70
2022-08-17T08:51:46.385Z,8.60
2022-08-17T08:54:38.254Z,7.90
2022-08-17T08:57:29.124Z,9.88
2022-08-17T09:00:14.610Z,9.35
2022-08-17T09:03:10.472Z,10.13
2022-08-17T09:06:33.263Z,10.25
2022-08-17T09:09:01.785Z,8.52
2022-08-17T09:12:02.759Z,9.07
2022-08-17T09:14:57.549Z,7.07
2022-08-17T09:18:08.599Z,10.35
2022-08-17T09:20:51.058Z,10.38
2022-08-17T09:23:36.285Z,5.75
2022-08-17T09:26:11.848Z,8.40
2022-08-17T09:28:42.536Z,9.32
2022-08-17T09:31:16.699Z,6.05
2022-08-17T09:33:48.257Z,6.30
2022-08-17T09:36:28.209Z,9.73
2022-08-17T09:39:05.874Z,8.30
2022-08-17T09:41:53.366Z,5.93
2022-08-17T09:44:35.824Z,6.35
2022-08-17T09:47:14.447Z,9.45
2022-08-17T09:49:53.773Z,8.30
2022-08-17T09:52:27.172Z,11.02
2022-08-17T09:54:56.953Z,7.53
2022-08-17T09:57:32.187Z,6.57
2022-08-17T10:00:11.112Z,4.80
2022-08-17T10:02:54.445Z,6.13
2022-08-17T10:05:33.323Z,8.65
2022-08-17T10:08:21.953Z,10.60
2022-08-17T10:11:14.988Z,6.32
2022-08-17T10:14:36.570Z,4.68
2022-08-17T10:17:12.294Z,5.55
2022-08-17T10:19:47.024Z,4.85
2022-08-17T10:22:44.097Z,4.97
2022-08-17T10:25:53.496Z,5.03
2022-08-17T10:28:28.851Z,6.63
2022-08-17T10:31:23.412Z,4.50
2022-08-17T10:34:14.012Z,7.00
2022-08-17T10:36:52.418Z,6.70
2022-08-17T10:39:50.406Z,4.97
2022-08-17T10:42:33.024Z,5.53
2022-08-17T10:45:15.409Z,6.55
2022-08-17T10:48:22.169Z,5.88
2022-08-17T10:51:07.404Z,9.40
2022-08-17T10:53:40.725Z,9.13
2022-08-17T10:56:13.523Z,5.07
2022-08-17T10:58:55.514Z,7.38
2022-08-17T11:01:34.543Z,4.65
2022-08-17T11:04:39.118Z,4.63
2022-08-17T11:07:32.071Z,5.38
2022-08-17T11:10:21.982Z,6.05
2022-08-17T11:13:10.754Z,5.50
2022-08-17T11:16:13.744Z,6.30
2022-08-17T11:18:55.567Z,7.20
2022-08-17T11:21:51.972Z,6.30
2022-08-17T11:24:37.335Z,7.45
2022-08-17T11:27:21.911Z,5.00
2022-08-17T11:30:00.946Z,5.57
2022-08-17T11:32:28.782Z,5.90
2022-08-17T11:35:31.002Z,4.93
2022-08-17T11:38:10.826Z,4.05
2022-08-17T11:40:54.794Z,5.05
2022-08-17T11:43:51.067Z,6.13
2022-08-17T11:46:52.909Z,5.63
2022-08-17T11:50:14.856Z,4.00
2022-08-17T11:52:46.084Z,7.18
2022-08-17T11:55:36.346Z,5.82
2022-08-17T11:58:37.422Z,3.25
2022-08-17T12:01:10.074Z,4.05
2022-08-17T12:03:53.698Z,4.38
2022-08-17T12:06:42.083Z,3.50
2022-08-17T12:09:14.755Z,4.82
2022-08-17T12:12:13.034Z,6.22
2022-08-17T12:17:50.655Z,4.50
2022-08-17T12:20:53.258Z,3.53
2022-08-17T12:23:33.807Z,4.35
2022-08-17T12:26:12.282Z,3.10
2022-08-17T12:28:45.357Z,3.50
2022-08-17T12:31:24.702Z,4.75
2022-08-17T12:33:52.203Z,8.65
2022-08-17T12:36:24.798Z,5.22
2022-08-17T12:39:14.214Z,5.88
2022-08-17T12:41:47.117Z,6.60
2022-08-17T12:44:18.869Z,3.83
2022-08-17T12:47:10.986Z,5.38
2022-08-17T12:49:40.883Z,4.07
2022-08-17T12:52:19.509Z,4.28
2022-08-17T12:54:54.934Z,4.47
2022-08-17T12:57:33.045Z,3.55
2022-08-17T13:00:22.345Z,5.57
2022-08-17T13:03:19.808Z,6.82
2022-08-17T13:05:52.560Z,5.47
2022-08-17T13:08:32.663Z,6.13
2022-08-17T13:11:06.586Z,6.72
2022-08-17T13:13:37.089Z,7.60
2022-08-17T13:16:09.401Z,7.22
2022-08-17T13:18:50.229Z,5.45
2022-08-17T13:21:27.418Z,5.05
2022-08-17T13:24:10.722Z,4.32
2022-08-17T13:26:51.451Z,4.30
2022-08-17T13:29:25.557Z,6.43
2022-08-17T13:32:04.140Z,7.72
2022-08-17T13:34:48.955Z,7.28
2022-08-17T13:37:34.640Z,3.42
2022-08-17T13:40:10.437Z,7.60
2022-08-17T13:42:51.985Z,7.88
2022-08-17T13:45:35.564Z,4.40
2022-08-17T13:48:22.269Z,4.38
2022-08-17T13:51:11.667Z,5.38
2022-08-17T13:53:40.149Z,3.58
2022-08-17T13:56:37.542Z,4.40
2022-08-17T13:59:02.082Z,3.88
2022-08-17T14:01:38.329Z,3.42
2022-08-17T14:04:11.594Z,5.50
2022-08-17T14:07:01.730Z,3.60
2022-08-17T14:09:37.267Z,5.75
2022-08-17T14:12:10.657Z,4.63
2022-08-17T14:14:38.519Z,5.28
2022-08-17T14:17:05.619Z,3.85
2022-08-17T14:19:37.103Z,8.02
2022-08-17T14:22:05.003Z,5.68
2022-08-17T14:24:35.435Z,3.75
2022-08-17T14:27:04.683Z,4.25
2022-08-17T14:29:34.290Z,5.15
2022-08-17T14:32:09.820Z,4.40
2022-08-17T14:34:36.795Z,4.25
2022-08-17T14:37:03.609Z,5.78
2022-08-17T14:39:30.507Z,4.85
2022-08-17T14:41:58.443Z,3.63
2022-08-17T14:44:25.323Z,4.95
2022-08-17T14:46:52.902Z,5.88
2022-08-17T14:49:20.636Z,6.07
2022-08-17T14:51:47.905Z,4.18
2022-08-17T14:54:33.105Z,3.88
2022-08-17T14:57:22.857Z,4.68
2022-08-17T14:59:54.784Z,3.53
2022-08-17T15:02:30.491Z,4.50
2022-08-17T15:05:03.607Z,4.13
2022-08-17T15:07:31.396Z,4.40
2022-08-17T15:10:01.332Z,7.45
2022-08-17T15:12:33.324Z,4.38
2022-08-17T15:15:01.875Z,4.22
2022-08-17T15:17:44.906Z,5.05
2022-08-17T15:20:15.480Z,5.60
2022-08-17T15:22:44.773Z,4.93
2022-08-17T15:25:12.553Z,5.53
2022-08-17T15:27:40.230Z,6.30
2022-08-17T15:30:09.838Z,7.00
2022-08-17T15:32:39.506Z,6.88
2022-08-17T15:35:08.850Z,4.68
2022-08-17T15:37:36.291Z,5.28
2022-08-17T15:40:04.416Z,8.90
2022-08-17T15:42:33.023Z,6.53
2022-08-17T15:45:06.297Z,4.57
2022-08-17T15:47:33.111Z,4.20
2022-08-17T15:50:00.403Z,3.97
2022-08-17T15:52:30.305Z,5.90
2022-08-17T15:55:00.688Z,5.60
2022-08-17T15:57:28.061Z,6.18
2022-08-17T15:59:58.433Z,6.10
2022-08-17T16:03:46.050Z,6.78
2022-08-17T16:05:21.942Z,5.55
2022-08-17T16:07:51.438Z,6.60
2022-08-17T16:10:19.402Z,5.85
2022-08-17T16:12:48.680Z,6.40
2022-08-17T16:15:16.302Z,5.45
2022-08-17T16:17:43.471Z,8.13
2022-08-17T16:20:19.523Z,7.20
2022-08-17T16:22:49.947Z,16.48
2022-08-17T16:25:21.948Z,8.38
2022-08-17T16:27:53.221Z,11.38
2022-08-17T16:30:23.137Z,7.22
2022-08-17T16:32:53.894Z,6.07
2022-08-17T16:35:22.611Z,5.47
2022-08-17T16:37:49.460Z,10.38
2022-08-17T16:40:17.145Z,8.27
2022-08-17T16:42:47.928Z,5.63
2022-08-17T16:45:21.538Z,5.82
2022-08-17T16:47:49.922Z,6.10
2022-08-17T16:50:20.393Z,7.38
2022-08-17T16:52:48.445Z,6.45
2022-08-17T16:55:18.653Z,10.38
2022-08-17T16:57:47.592Z,6.13
2022-08-17T17:00:20.814Z,9.48
2022-08-17T17:02:49.479Z,11.20
2022-08-17T17:05:51.336Z,8.57
2022-08-17T17:08:34.022Z,6.97
2022-08-17T17:11:10.453Z,4.78
2022-08-17T17:13:59.574Z,6.82
2022-08-17T17:16:47.675Z,6.72
2022-08-17T17:19:37.991Z,7.55
2022-08-17T17:22:14.450Z,8.27
2022-08-17T17:24:51.543Z,7.65
2022-08-17T17:28:05.329Z,5.72
2022-08-17T17:30:56.879Z,6.78
2022-08-17T17:33:45.113Z,5.80
2022-08-17T17:36:34.483Z,10.45
2022-08-17T17:39:17.013Z,10.02
2022-08-17T17:41:51.150Z,11.80
2022-08-17T17:44:24.308Z,13.00
2022-08-17T17:46:56.530Z,7.97
2022-08-17T17:49:26.555Z,9.38
2022-08-17T17:52:10.042Z,16.42
2022-08-17T17:55:09.137Z,9.90
2022-08-17T17:58:14.041Z,8.50
2022-08-17T18:00:52.766Z,10.10
2022-08-17T18:03:25.762Z,11.40
2022-08-17T18:06:04.536Z,12.25
2022-08-17T18:08:46.729Z,12.68
2022-08-17T18:11:24.358Z,10.05
2022-08-17T18:14:26.963Z,10.48
2022-08-17T18:16:56.542Z,7.40
2022-08-17T18:19:25.586Z,10.82
2022-08-17T18:22:01.476Z,10.05
2022-08-17T18:24:31.498Z,12.40
2022-08-17T18:27:01.008Z,8.70
2022-08-17T18:29:27.899Z,11.52
2022-08-17T18:32:37.885Z,10.32
2022-08-17T18:35:16.042Z,13.82
2022-08-17T18:37:49.510Z,12.77
2022-08-17T18:40:16.470Z,20.50
2022-08-17T18:42:45.793Z,17.67
2022-08-17T18:45:29.983Z,15.23
2022-08-17T18:47:57.894Z,11.13
2022-08-17T18:50:36.552Z,9.73
2022-08-17T18:53:33.953Z,11.38
2022-08-17T18:56:22.766Z,13.32
2022-08-17T18:59:18.889Z,9.20
2022-08-17T19:02:15.962Z,8.60
2022-08-17T19:05:26.521Z,10.30
2022-08-17T19:07:53.616Z,7.93
2022-08-17T19:10:25.489Z,9.05
2022-08-17T19:13:12.556Z,9.00
2022-08-17T19:16:11.740Z,9.88
2022-08-17T19:18:51.939Z,8.10
2022-08-17T19:21:57.268Z,11.93
2022-08-17T19:24:26.365Z,12.43
2022-08-17T19:27:03.246Z,11.48
2022-08-17T19:29:54.781Z,10.98
2022-08-17T19:32:30.228Z,9.93
2022-08-17T19:34:57.858Z,13.70
2022-08-17T19:37:52.635Z,8.43
2022-08-17T19:40:54.838Z,16.42
2022-08-17T19:43:40.579Z,19.38
2022-08-17T19:46:30.287Z,18.00
2022-08-17T19:49:21.274Z,16.42
2022-08-17T19:52:18.644Z,13.20
2022-08-17T19:55:00.405Z,11.82
2022-08-17T19:57:27.188Z,8.70
2022-08-17T20:00:11.951Z,9.00
2022-08-17T20:02:50.074Z,10.93
2022-08-17T20:05:44.427Z,13.35
2022-08-17T20:08:28.769Z,12.25
2022-08-17T20:11:18.184Z,9.73
2022-08-17T20:14:04.478Z,10.55
2022-08-17T20:16:33.175Z,11.40
2022-08-17T20:19:03.228Z,11.02
2022-08-17T20:21:40.218Z,8.75
2022-08-17T20:24:32.138Z,7.80
2022-08-17T20:27:12.285Z,11.98
2022-08-17T20:29:59.365Z,10.25
2022-08-17T20:32:34.253Z,13.85
2022-08-17T20:35:25.894Z,9.75
2022-08-17T20:37:55.334Z,15.68
2022-08-17T20:40:53.502Z,9.50
2022-08-17T20:43:33.737Z,15.38
2022-08-17T20:46:19.268Z,12.15
2022-08-17T20:48:49.358Z,12.07
2022-08-17T20:51:25.904Z,13.43
2022-08-17T20:53:55.414Z,10.57
2022-08-17T20:56:44.016Z,14.55
2022-08-17T20:59:25.566Z,13.02
2022-08-17T21:02:17.723Z,9.73
2022-08-17T21:04:56.354Z,11.80
2022-08-17T21:07:23.126Z,13.90
2022-08-17T21:09:50.709Z,14.57
2022-08-17T21:12:41.526Z,17.52
2022-08-17T21:15:35.243Z,12.90
2022-08-17T21:18:13.615Z,12.02
2022-08-17T21:21:14.107Z,16.48
2022-08-17T21:23:58.599Z,12.48
2022-08-17T21:27:00.458Z,12.77
2022-08-17T21:29:33.801Z,11.93
2022-08-17T21:32:03.818Z,11.68
2022-08-17T21:34:43.818Z,11.52
2022-08-17T21:37:23.326Z,10.50
2022-08-17T21:40:18.637Z,11.93
2022-08-17T21:43:17.143Z,9.10
2022-08-17T21:45:59.111Z,15.93
2022-08-17T21:48:30.046Z,13.05
2022-08-17T21:51:22.804Z,13.27
2022-08-17T21:53:53.906Z,13.13
2022-08-17T21:56:29.801Z,15.70
2022-08-17T21:59:04.276Z,9.10
2022-08-17T22:01:41.265Z,14.02
2022-08-17T22:04:14.038Z,11.75
2022-08-17T22:06:52.541Z,11.75
2022-08-17T22:09:32.011Z,15.02
2022-08-17T22:12:25.394Z,12.82
2022-08-17T22:15:01.205Z,13.55
2022-08-17T22:17:36.782Z,22.60
2022-08-17T22:20:17.627Z,12.13
2022-08-17T22:23:08.730Z,11.20
2022-08-17T22:25:39.166Z,13.93
2022-08-17T22:28:09.120Z,10.00
2022-08-17T22:30:40.232Z,12.57
2022-08-17T22:33:35.096Z,12.52
2022-08-17T22:36:14.252Z,18.65
2022-08-17T22:38:43.587Z,12.57
2022-08-17T22:41:26.269Z,9.77
2022-08-17T22:43:54.162Z,9.25
2022-08-17T22:46:23.804Z,9.65
2022-08-17T22:48:59.490Z,18.00
2022-08-17T22:51:29.702Z,12.82
2022-08-17T22:54:19.409Z,11.85
2022-08-17T22:57:18.848Z,12.40
2022-08-17T22:59:55.514Z,11.02
2022-08-17T23:02:26.659Z,9.38
2022-08-17T23:05:16.879Z,10.95
2022-08-17T23:07:45.866Z,9.77
2022-08-17T23:10:14.271Z,12.10
2022-08-17T23:12:41.261Z,8.45
2022-08-17T23:15:15.642Z,11.98
2022-08-17T23:17:43.053Z,9.25
2022-08-17T23:20:14.990Z,9.48
2022-08-17T23:22:51.105Z,8.40
2022-08-17T23:25:28.292Z,7.60
2022-08-17T23:27:57.251Z,8.00
2022-08-17T23:30:25.483Z,11.73
2022-08-17T23:32:54.214Z,7.88
2022-08-17T23:35:39.759Z,7.90
2022-08-17T23:38:09.181Z,15.07
2022-08-17T23:40:37.672Z,17.60
2022-08-17T23:43:23.623Z,12.02
2022-08-17T23:45:54.772Z,8.00
2022-08-17T23:48:35.227Z,8.43
2022-08-17T23:51:13.951Z,7.00
2022-08-17T23:53:47.308Z,7.28
2022-08-17T23:56:15.252Z,7.45
2022-08-17T23:58:43.347Z,9.52
